createdAt,value
2023-02-22T00:01:50.465Z,43.80
2023-02-22T00:04:07.106Z,39.60
2023-02-22T00:06:25.268Z,42.80
2023-02-22T00:08:37.541Z,44.80
2023-02-22T00:10:53.101Z,38.10
2023-02-22T00:13:07.696Z,36.10
2023-02-22T00:15:22.832Z,43.30
2023-02-22T00:17:35.433Z,35.70
2023-02-22T00:19:49.067Z,42.20
2023-02-22T00:22:00.754Z,35.40
2023-02-22T00:24:23.513Z,39.90
2023-02-22T00:26:35.295Z,33.50
2023-02-22T00:28:54.693Z,35.10
2023-02-22T00:31:07.983Z,38.20
2023-02-22T00:33:20.316Z,40.20
2023-02-22T00:35:32.601Z,42.00
2023-02-22T00:37:48.620Z,44.80
2023-02-22T00:40:00.777Z,50.60
2023-02-22T00:42:12.874Z,41.50
2023-02-22T00:44:24.765Z,48.00
2023-02-22T00:46:36.554Z,49.30
2023-02-22T00:48:48.649Z,46.10
2023-02-22T00:51:02.899Z,46.50
2023-02-22T00:53:16.146Z,38.00
2023-02-22T00:55:31.266Z,38.50
2023-02-22T00:57:43.392Z,44.50
2023-02-22T00:59:55.587Z,37.30
2023-02-22T01:02:09.765Z,39.30
2023-02-22T01:04:22.238Z,38.00
2023-02-22T01:06:35.982Z,32.30
2023-02-22T01:08:48.992Z,36.90
2023-02-22T01:11:02.634Z,36.60
2023-02-22T01:13:15.237Z,41.70
2023-02-22T01:15:30.926Z,34.00
2023-02-22T01:17:43.998Z,43.60
2023-02-22T01:19:56.440Z,40.30
2023-02-22T01:22:09.051Z,46.20
2023-02-22T01:24:21.045Z,49.20
2023-02-22T01:26:33.062Z,43.20
2023-02-22T01:28:44.728Z,42.10
2023-02-22T01:30:56.993Z,38.50
2023-02-22T01:33:09.488Z,41.60
2023-02-22T01:35:28.043Z,49.40
2023-02-22T01:37:40.588Z,51.10
2023-02-22T01:39:52.378Z,51.20
2023-02-22T01:42:04.579Z,46.80
2023-02-22T01:44:35.650Z,47.00
2023-02-22T01:46:47.817Z,42.10
2023-02-22T01:49:06.775Z,49.30
2023-02-22T01:51:24.360Z,44.90
2023-02-22T01:54:03.130Z,40.40
2023-02-22T01:56:16.549Z,39.50
2023-02-22T01:58:33.769Z,41.20
2023-02-22T02:00:45.974Z,41.60
2023-02-22T02:03:01.932Z,39.00
2023-02-22T02:05:15.127Z,41.80
2023-02-22T02:07:29.866Z,41.60
2023-02-22T02:10:06.611Z,33.60
2023-02-22T02:12:20.057Z,38.70
2023-02-22T02:14:32.959Z,34.50
2023-02-22T02:16:49.247Z,33.60
2023-02-22T02:19:03.552Z,42.00
2023-02-22T02:21:34.949Z,39.90
2023-02-22T02:24:09.267Z,33.00
2023-02-22T02:26:59.562Z,41.60
2023-02-22T02:29:30.603Z,37.10
2023-02-22T02:32:27.589Z,40.30
2023-02-22T02:35:04.638Z,38.90
2023-02-22T02:37:43.253Z,47.20
2023-02-22T02:40:13.841Z,57.90
2023-02-22T02:42:34.892Z,51.50
2023-02-22T02:45:08.863Z,58.90
2023-02-22T02:47:29.723Z,55.70
2023-02-22T02:50:00.153Z,54.60
2023-02-22T02:52:13.477Z,57.40
2023-02-22T02:54:26.680Z,48.10
2023-02-22T02:56:38.889Z,57.50
2023-02-22T02:58:53.468Z,51.50
2023-02-22T03:01:08.398Z,49.40
2023-02-22T03:03:27.327Z,57.20
2023-02-22T03:05:59.629Z,47.80
2023-02-22T03:08:34.766Z,57.80
2023-02-22T03:11:15.552Z,54.40
2023-02-22T03:13:42.790Z,45.90
2023-02-22T03:16:03.005Z,53.70
2023-02-22T03:18:38.486Z,54.10
2023-02-22T03:21:00.349Z,50.00
2023-02-22T03:23:34.359Z,54.80
2023-02-22T03:25:52.085Z,47.70
2023-02-22T03:28:11.634Z,49.00
2023-02-22T03:30:29.054Z,57.80
2023-02-22T03:32:47.211Z,47.70
2023-02-22T03:35:07.845Z,58.50
2023-02-22T03:37:25.956Z,61.20
2023-02-22T03:39:39.076Z,65.10
2023-02-22T03:41:53.981Z,61.70
2023-02-22T03:44:12.289Z,62.20
2023-02-22T03:46:24.551Z,68.20
2023-02-22T03:48:49.072Z,71.20
2023-02-22T03:51:04.527Z,71.30
2023-02-22T03:53:19.237Z,70.20
2023-02-22T03:55:31.713Z,66.70
2023-02-22T03:57:51.204Z,62.90
2023-02-22T04:00:07.590Z,57.90
2023-02-22T04:02:24.693Z,58.90
2023-02-22T04:04:37.790Z,64.50
2023-02-22T04:06:50.219Z,56.40
2023-02-22T04:09:03.158Z,62.20
2023-02-22T04:11:15.839Z,69.40
2023-02-22T04:13:28.253Z,65.80
2023-02-22T04:15:40.897Z,62.60
2023-02-22T04:17:55.327Z,61.20
2023-02-22T04:20:08.436Z,57.30
2023-02-22T04:22:28.421Z,59.80
2023-02-22T04:24:41.342Z,60.70
2023-02-22T04:26:55.249Z,65.70
2023-02-22T04:29:08.511Z,62.30
2023-02-22T04:31:23.474Z,58.00
2023-02-22T04:33:36.829Z,58.00
2023-02-22T04:35:49.198Z,66.30
2023-02-22T04:38:01.494Z,64.70
2023-02-22T04:40:13.182Z,66.30
2023-02-22T04:42:25.388Z,62.10
2023-02-22T04:44:37.682Z,58.90
2023-02-22T04:46:50.260Z,66.70
2023-02-22T04:49:02.387Z,67.20
2023-02-22T04:51:16.986Z,57.20
2023-02-22T04:53:39.702Z,62.80
2023-02-22T04:55:52.842Z,67.50
2023-02-22T04:58:05.622Z,99.30
2023-02-22T05:00:21.636Z,131.60
2023-02-22T05:02:33.845Z,134.30
2023-02-22T05:04:46.146Z,106.60
2023-02-22T05:06:57.801Z,109.20
2023-02-22T05:09:09.490Z,105.30
2023-02-22T05:11:22.414Z,112.90
2023-02-22T05:13:34.404Z,126.20
2023-02-22T05:15:46.201Z,197.80
2023-02-22T05:17:58.343Z,175.60
2023-02-22T05:20:19.774Z,179.70
2023-02-22T05:22:31.592Z,161.40
2023-02-22T05:24:44.105Z,163.20
2023-02-22T05:26:55.789Z,170.60
2023-02-22T05:29:07.681Z,180.40
2023-02-22T05:31:19.779Z,176.40
2023-02-22T05:33:31.983Z,167.10
2023-02-22T05:35:44.024Z,180.10
2023-02-22T05:37:56.481Z,201.50
2023-02-22T05:40:09.225Z,226.10
2023-02-22T05:42:21.595Z,235.10
2023-02-22T05:44:33.385Z,295.60
2023-02-22T05:46:45.208Z,336.10
2023-02-22T05:48:56.968Z,419.50
2023-02-22T05:51:09.834Z,405.00
2023-02-22T05:53:23.924Z,507.80
2023-02-22T05:55:36.027Z,595.90
2023-02-22T05:57:48.122Z,546.60
2023-02-22T06:00:00.016Z,486.70
2023-02-22T06:02:12.052Z,423.00
2023-02-22T06:04:23.796Z,387.60
2023-02-22T06:06:35.894Z,377.50
2023-02-22T06:08:47.473Z,362.40
2023-02-22T06:10:59.372Z,362.80
2023-02-22T06:13:11.110Z,370.80
2023-02-22T06:15:25.088Z,314.70
2023-02-22T06:17:36.891Z,276.10
2023-02-22T06:19:48.679Z,278.00
2023-02-22T06:22:01.081Z,270.00
2023-02-22T06:24:13.893Z,287.90
2023-02-22T06:26:25.990Z,269.60
2023-02-22T06:28:38.192Z,264.00
2023-02-22T06:30:49.466Z,261.30
2023-02-22T06:33:01.608Z,275.80
2023-02-22T06:35:14.640Z,266.80
2023-02-22T06:37:26.545Z,262.40
2023-02-22T06:39:38.077Z,267.30
2023-02-22T06:41:51.486Z,276.30
2023-02-22T06:44:04.204Z,309.50
2023-02-22T06:46:15.989Z,280.00
2023-02-22T06:48:27.987Z,251.40
2023-02-22T06:50:40.088Z,221.20
2023-02-22T06:52:52.689Z,193.00
2023-02-22T06:55:04.809Z,183.30
2023-02-22T06:57:17.233Z,134.70
2023-02-22T06:59:29.291Z,116.70
2023-02-22T07:01:42.818Z,98.80
2023-02-22T07:03:54.617Z,83.10
2023-02-22T07:06:07.356Z,82.10
2023-02-22T07:08:18.778Z,87.20
2023-02-22T07:10:31.745Z,127.70
2023-02-22T07:12:43.571Z,119.40
2023-02-22T07:14:56.544Z,202.60
2023-02-22T07:17:08.187Z,292.90
2023-02-22T07:19:20.933Z,105.20
2023-02-22T07:21:32.725Z,91.20
2023-02-22T07:23:54.243Z,71.90
2023-02-22T07:26:06.033Z,60.20
2023-02-22T07:28:19.433Z,55.10
2023-02-22T07:30:34.299Z,53.00
2023-02-22T07:32:47.077Z,51.30
2023-02-22T07:34:59.347Z,50.30
2023-02-22T07:37:11.457Z,56.60
2023-02-22T07:39:23.687Z,46.70
2023-02-22T07:41:35.626Z,49.50
2023-02-22T07:43:47.405Z,54.20
2023-02-22T07:46:02.966Z,53.60
2023-02-22T07:48:17.325Z,51.20
2023-02-22T07:50:31.485Z,54.40
2023-02-22T07:52:47.730Z,51.30
2023-02-22T07:55:00.700Z,43.80
2023-02-22T07:57:13.996Z,44.00
2023-02-22T07:59:25.692Z,48.60
2023-02-22T08:01:37.596Z,53.80
2023-02-22T08:03:49.461Z,47.40
2023-02-22T08:06:03.164Z,51.70
2023-02-22T08:08:18.823Z,53.50
2023-02-22T08:10:31.891Z,62.10
2023-02-22T08:12:43.828Z,63.60
2023-02-22T08:14:55.622Z,77.10
2023-02-22T08:17:08.824Z,67.00
2023-02-22T08:19:23.089Z,69.70
2023-02-22T08:21:35.082Z,63.20
2023-02-22T08:23:51.591Z,59.10
2023-02-22T08:26:09.200Z,61.90
2023-02-22T08:28:23.615Z,60.80
2023-02-22T08:30:39.038Z,58.80
2023-02-22T08:32:52.243Z,64.00
2023-02-22T08:35:05.278Z,61.80
2023-02-22T08:37:18.254Z,51.50
2023-02-22T08:39:29.883Z,51.50
2023-02-22T08:41:41.885Z,55.80
2023-02-22T08:43:53.769Z,44.40
2023-02-22T08:46:05.481Z,49.20
2023-02-22T08:48:18.585Z,46.90
2023-02-22T08:50:33.837Z,48.30
2023-02-22T08:52:53.384Z,45.20
2023-02-22T08:55:08.387Z,42.40
2023-02-22T08:57:21.733Z,38.20
2023-02-22T08:59:34.008Z,44.60
2023-02-22T09:01:45.752Z,46.30
2023-02-22T09:03:58.232Z,41.90
2023-02-22T09:06:14.037Z,45.50
2023-02-22T09:08:26.388Z,41.00
2023-02-22T09:10:38.801Z,47.20
2023-02-22T09:12:52.117Z,45.10
2023-02-22T09:15:04.216Z,45.10
2023-02-22T09:17:16.006Z,43.80
2023-02-22T09:19:28.821Z,43.60
2023-02-22T09:21:41.542Z,43.00
2023-02-22T09:23:54.843Z,41.20
2023-02-22T09:26:10.751Z,40.20
2023-02-22T09:28:24.709Z,45.60
2023-02-22T09:30:37.564Z,45.90
2023-02-22T09:32:51.523Z,41.00
2023-02-22T09:35:03.739Z,38.00
2023-02-22T09:37:15.560Z,42.90
2023-02-22T09:39:28.178Z,44.40
2023-02-22T09:41:57.033Z,45.10
2023-02-22T09:44:28.277Z,41.50
2023-02-22T09:46:45.961Z,42.70
2023-02-22T09:49:05.431Z,42.80
2023-02-22T09:51:20.745Z,41.00
2023-02-22T09:53:42.039Z,40.10
2023-02-22T09:55:57.860Z,44.10
2023-02-22T09:58:22.129Z,37.90
2023-02-22T10:00:38.831Z,41.50
2023-02-22T10:03:31.174Z,37.40
2023-02-22T10:05:53.744Z,41.10
2023-02-22T10:08:12.834Z,44.10
2023-02-22T10:10:33.585Z,41.90
2023-02-22T10:13:09.943Z,40.50
2023-02-22T10:15:42.841Z,37.80
2023-02-22T10:18:03.536Z,40.00
2023-02-22T10:20:37.435Z,37.40
2023-02-22T10:23:03.773Z,38.50
2023-02-22T10:25:20.634Z,36.90
2023-02-22T10:27:39.497Z,38.50
2023-02-22T10:30:26.008Z,38.50
2023-02-22T10:32:45.712Z,39.90
2023-02-22T10:35:00.952Z,36.60
2023-02-22T10:37:24.406Z,36.80
2023-02-22T10:39:39.918Z,37.90
2023-02-22T10:42:05.793Z,36.20
2023-02-22T10:44:17.747Z,42.10
2023-02-22T10:46:32.565Z,37.10
2023-02-22T10:48:48.228Z,37.60
2023-02-22T10:51:02.255Z,33.70
2023-02-22T10:53:17.895Z,33.50
2023-02-22T10:55:29.885Z,32.70
2023-02-22T10:57:47.061Z,32.60
2023-02-22T11:00:14.102Z,28.00
2023-02-22T11:02:35.249Z,29.90
2023-02-22T11:04:55.744Z,26.60
2023-02-22T11:07:14.521Z,30.50
2023-02-22T11:09:29.071Z,28.70
2023-02-22T11:11:44.438Z,30.20
2023-02-22T11:13:57.365Z,23.80
2023-02-22T11:16:31.662Z,21.70
2023-02-22T11:18:43.603Z,23.00
2023-02-22T11:21:05.552Z,26.50
2023-02-22T11:23:23.566Z,20.50
2023-02-22T11:25:39.220Z,24.40
2023-02-22T11:27:52.648Z,28.20
2023-02-22T11:30:22.138Z,32.40
2023-02-22T11:32:36.598Z,20.90
2023-02-22T11:35:03.461Z,22.60
2023-02-22T11:37:36.716Z,24.90
2023-02-22T11:42:27.473Z,20.70
2023-02-22T11:44:44.054Z,17.70
2023-02-22T11:47:01.573Z,24.90
2023-02-22T11:49:17.461Z,24.90
2023-02-22T11:51:32.227Z,21.30
2023-02-22T11:54:13.916Z,21.20
2023-02-22T11:56:38.119Z,21.30
2023-02-22T11:59:08.217Z,19.00
2023-02-22T12:01:55.414Z,20.80
2023-02-22T12:04:40.463Z,25.20
2023-02-22T12:07:15.573Z,18.10
2023-02-22T12:09:40.851Z,22.40
2023-02-22T12:12:17.684Z,18.20
2023-02-22T12:14:49.530Z,17.90
2023-02-22T12:17:07.895Z,22.30
2023-02-22T12:19:39.982Z,19.30
2023-02-22T12:22:03.288Z,20.00
2023-02-22T12:24:27.848Z,20.90
2023-02-22T12:26:42.280Z,20.40
2023-02-22T12:29:09.408Z,22.20
2023-02-22T12:31:36.102Z,18.10
2023-02-22T12:34:27.501Z,20.90
2023-02-22T12:36:51.961Z,15.40
2023-02-22T12:39:21.026Z,23.60
2023-02-22T12:41:55.450Z,17.10
2023-02-22T12:44:23.538Z,19.30
2023-02-22T12:46:41.749Z,46.30
2023-02-22T12:49:31.913Z,28.30
2023-02-22T12:51:52.543Z,30.60
2023-02-22T12:54:16.560Z,24.30
2023-02-22T12:56:34.590Z,28.70
2023-02-22T12:58:54.478Z,24.40
2023-02-22T13:01:18.147Z,17.10
2023-02-22T13:03:42.552Z,22.40
2023-02-22T13:06:26.582Z,19.80
2023-02-22T13:08:56.792Z,19.50
2023-02-22T13:11:38.684Z,23.40
2023-02-22T13:14:14.743Z,20.70
2023-02-22T13:16:56.641Z,18.20
2023-02-22T13:19:24.304Z,20.30
2023-02-22T13:21:55.754Z,12.70
2023-02-22T13:24:22.779Z,23.10
2023-02-22T13:26:52.221Z,18.30
2023-02-22T13:29:16.894Z,17.40
2023-02-22T13:31:57.939Z,19.50
2023-02-22T13:34:31.984Z,21.90
2023-02-22T13:37:17.977Z,20.30
2023-02-22T13:39:35.907Z,16.20
2023-02-22T13:44:13.718Z,15.00
2023-02-22T13:46:44.615Z,26.70
2023-02-22T13:49:19.082Z,20.50
2023-02-22T13:51:53.496Z,17.20
2023-02-22T13:54:17.989Z,15.40
2023-02-22T13:56:30.561Z,20.60
2023-02-22T13:59:21.499Z,29.10
2023-02-22T14:01:42.685Z,36.60
2023-02-22T14:04:23.702Z,25.90
2023-02-22T14:06:39.106Z,18.70
2023-02-22T14:08:50.850Z,24.70
2023-02-22T14:11:31.823Z,22.40
2023-02-22T14:14:09.069Z,20.60
2023-02-22T14:16:32.435Z,22.10
2023-02-22T14:19:09.545Z,25.00
2023-02-22T14:21:33.224Z,18.60
2023-02-22T14:23:56.647Z,22.50
2023-02-22T14:26:34.191Z,16.60
2023-02-22T14:29:06.603Z,31.30
2023-02-22T14:31:35.349Z,16.10
2023-02-22T14:33:59.622Z,16.60
2023-02-22T14:36:13.596Z,17.60
2023-02-22T14:38:26.274Z,21.80
2023-02-22T14:40:42.900Z,24.30
2023-02-22T14:43:15.354Z,18.10
2023-02-22T14:45:34.389Z,19.70
2023-02-22T14:48:17.128Z,15.50
2023-02-22T14:50:45.421Z,19.20
2023-02-22T14:53:12.245Z,20.90
2023-02-22T14:55:26.417Z,26.80
2023-02-22T14:57:53.763Z,30.40
2023-02-22T15:00:33.191Z,37.80
2023-02-22T15:02:55.348Z,37.50
2023-02-22T15:05:08.238Z,46.30
2023-02-22T15:07:28.761Z,37.80
2023-02-22T15:09:41.064Z,99.80
2023-02-22T15:12:03.884Z,49.20
2023-02-22T15:14:26.291Z,39.60
2023-02-22T15:16:44.667Z,33.00
2023-02-22T15:21:19.525Z,42.70
2023-02-22T15:23:43.823Z,43.00
2023-02-22T15:25:55.805Z,72.40
2023-02-22T15:28:09.751Z,49.60
2023-02-22T15:30:28.170Z,23.90
2023-02-22T15:32:56.937Z,27.00
2023-02-22T15:35:20.327Z,30.50
2023-02-22T15:37:33.497Z,20.60
2023-02-22T15:39:53.017Z,19.30
2023-02-22T15:42:08.105Z,22.50
2023-02-22T15:44:24.411Z,21.70
2023-02-22T15:46:36.686Z,27.00
2023-02-22T15:49:10.183Z,31.00
2023-02-22T15:51:22.301Z,18.20
2023-02-22T15:53:45.370Z,23.60
2023-02-22T15:56:00.299Z,20.40
2023-02-22T15:58:23.874Z,27.30
2023-02-22T16:00:38.668Z,21.90
2023-02-22T16:02:51.854Z,23.50
2023-02-22T16:05:10.234Z,20.10
2023-02-22T16:07:24.540Z,23.10
2023-02-22T16:09:37.972Z,25.30
2023-02-22T16:11:50.781Z,24.40
2023-02-22T16:14:06.118Z,24.00
2023-02-22T16:16:20.971Z,23.30
2023-02-22T16:18:36.403Z,21.80
2023-02-22T16:21:02.110Z,19.60
2023-02-22T16:23:28.646Z,25.40
2023-02-22T16:25:40.535Z,19.40
2023-02-22T16:28:00.316Z,22.00
2023-02-22T16:30:24.492Z,20.90
2023-02-22T16:32:37.970Z,21.00
2023-02-22T16:34:50.658Z,22.00
2023-02-22T16:37:02.365Z,22.90
2023-02-22T16:39:27.492Z,23.00
2023-02-22T16:41:40.040Z,26.20
2023-02-22T16:43:54.420Z,32.80
2023-02-22T16:46:07.286Z,42.20
2023-02-22T16:48:22.675Z,25.30
2023-02-22T16:50:35.186Z,31.20
2023-02-22T16:52:47.842Z,25.10
2023-02-22T16:55:02.199Z,24.00
2023-02-22T16:57:24.982Z,27.50
2023-02-22T16:59:39.333Z,23.20
2023-02-22T17:01:51.327Z,44.80
2023-02-22T17:04:09.521Z,54.50
2023-02-22T17:06:22.689Z,49.20
2023-02-22T17:08:34.374Z,48.20
2023-02-22T17:10:51.733Z,45.10
2023-02-22T17:13:21.303Z,34.90
2023-02-22T17:15:35.683Z,38.70
2023-02-22T17:17:48.978Z,30.00
2023-02-22T17:20:01.804Z,27.30
2023-02-22T17:22:20.610Z,31.60
2023-02-22T17:24:34.291Z,42.90
2023-02-22T17:26:46.684Z,31.50
2023-02-22T17:28:58.629Z,26.80
2023-02-22T17:31:20.762Z,26.70
2023-02-22T17:33:36.753Z,21.70
2023-02-22T17:35:48.903Z,27.80
2023-02-22T17:38:01.815Z,28.40
2023-02-22T17:40:14.926Z,29.70
2023-02-22T17:42:27.150Z,33.60
2023-02-22T17:44:39.235Z,30.90
2023-02-22T17:46:52.991Z,28.90
2023-02-22T17:49:04.569Z,33.30
2023-02-22T17:51:16.655Z,30.70
2023-02-22T17:53:28.547Z,29.60
2023-02-22T17:55:42.216Z,35.20
2023-02-22T17:57:59.536Z,34.90
2023-02-22T18:00:23.488Z,29.10
2023-02-22T18:02:35.677Z,32.10
2023-02-22T18:04:47.665Z,26.80
2023-02-22T18:07:00.376Z,28.50
2023-02-22T18:09:14.756Z,24.60
2023-02-22T18:11:28.863Z,32.90
2023-02-22T18:13:41.708Z,30.50
2023-02-22T18:16:00.042Z,28.50
2023-02-22T18:18:13.062Z,29.80
2023-02-22T18:20:31.325Z,30.20
2023-02-22T18:25:00.159Z,30.10
2023-02-22T18:27:14.955Z,33.00
2023-02-22T18:29:29.079Z,26.60
2023-02-22T18:31:40.747Z,32.30
2023-02-22T18:33:53.006Z,28.70
2023-02-22T18:36:05.804Z,30.90
2023-02-22T18:38:26.090Z,34.30
2023-02-22T18:40:38.387Z,35.40
2023-02-22T18:42:50.387Z,33.00
2023-02-22T18:45:04.836Z,35.50
2023-02-22T18:47:17.411Z,30.60
2023-02-22T18:49:29.336Z,34.10
2023-02-22T18:51:43.748Z,35.10
2023-02-22T18:54:00.795Z,39.00
2023-02-22T18:56:16.121Z,34.20
2023-02-22T18:58:28.069Z,28.30
2023-02-22T19:00:40.064Z,35.70
2023-02-22T19:02:53.916Z,35.30
2023-02-22T19:05:06.611Z,35.30
2023-02-22T19:07:20.245Z,32.20
2023-02-22T19:09:32.867Z,36.60
2023-02-22T19:11:46.803Z,31.50
2023-02-22T19:13:58.800Z,35.10
2023-02-22T19:16:10.525Z,34.30
2023-02-22T19:18:23.775Z,33.50
2023-02-22T19:20:36.086Z,35.90
2023-02-22T19:22:49.442Z,34.00
2023-02-22T19:25:01.644Z,37.20
2023-02-22T19:27:16.972Z,34.60
2023-02-22T19:29:31.306Z,31.90
2023-02-22T19:31:46.025Z,33.20
2023-02-22T19:34:09.172Z,33.00
2023-02-22T19:36:25.771Z,33.00
2023-02-22T19:38:38.632Z,32.70
2023-02-22T19:40:51.091Z,34.90
2023-02-22T19:43:03.186Z,34.50
2023-02-22T19:45:15.067Z,30.30
2023-02-22T19:47:26.975Z,32.70
2023-02-22T19:49:41.255Z,32.30
2023-02-22T19:51:53.316Z,28.40
2023-02-22T19:54:07.368Z,28.30
2023-02-22T19:56:27.037Z,29.90
2023-02-22T19:58:40.870Z,32.40
2023-02-22T20:00:52.638Z,31.80
2023-02-22T20:03:09.492Z,37.20
2023-02-22T20:05:21.056Z,28.20
2023-02-22T20:07:33.665Z,32.50
2023-02-22T20:09:45.657Z,32.10
2023-02-22T20:11:57.377Z,30.40
2023-02-22T20:14:17.619Z,31.80
2023-02-22T20:16:30.237Z,32.00
2023-02-22T20:18:47.773Z,29.00
2023-02-22T20:21:09.705Z,32.20
2023-02-22T20:23:24.263Z,33.60
2023-02-22T20:25:36.305Z,31.40
2023-02-22T20:27:47.932Z,37.50
2023-02-22T20:29:59.927Z,35.80
2023-02-22T20:32:15.149Z,34.00
2023-02-22T20:34:31.435Z,40.20
2023-02-22T20:36:43.591Z,34.20
2023-02-22T20:38:59.175Z,38.60
2023-02-22T20:41:15.796Z,38.60
2023-02-22T20:43:28.033Z,41.40
2023-02-22T20:45:41.296Z,38.80
2023-02-22T20:47:52.985Z,45.70
2023-02-22T20:50:05.849Z,41.90
2023-02-22T20:52:17.590Z,40.60
2023-02-22T20:54:29.245Z,44.70
2023-02-22T20:56:43.729Z,44.90
2023-02-22T20:59:01.499Z,40.50
2023-02-22T21:01:17.178Z,41.70
2023-02-22T21:03:29.296Z,44.80
2023-02-22T21:05:45.873Z,43.90
2023-02-22T21:07:58.589Z,46.20
2023-02-22T21:10:10.426Z,40.50
2023-02-22T21:12:22.342Z,40.40
2023-02-22T21:14:34.897Z,44.30
2023-02-22T21:16:49.032Z,38.60
2023-02-22T21:19:04.165Z,39.90
2023-02-22T21:21:16.719Z,39.30
2023-02-22T21:23:30.278Z,40.40
2023-02-22T21:25:53.200Z,41.40
2023-02-22T21:28:05.555Z,37.20
2023-02-22T21:30:17.957Z,39.60
2023-02-22T21:32:29.635Z,41.60
2023-02-22T21:34:42.258Z,36.60
2023-02-22T21:36:54.752Z,38.80
2023-02-22T21:39:18.436Z,36.10
2023-02-22T21:41:31.657Z,37.60
2023-02-22T21:43:48.909Z,34.30
2023-02-22T21:46:04.848Z,37.50
2023-02-22T21:48:17.497Z,36.30
2023-02-22T21:50:31.246Z,33.00
2023-02-22T21:52:48.756Z,35.40
2023-02-22T21:55:01.478Z,32.90
2023-02-22T21:57:15.394Z,34.10
2023-02-22T21:59:27.805Z,33.30
2023-02-22T22:01:47.558Z,34.70
2023-02-22T22:04:01.895Z,32.10
2023-02-22T22:06:14.555Z,35.00
2023-02-22T22:08:28.156Z,32.10
2023-02-22T22:10:39.638Z,33.90
2023-02-22T22:12:52.960Z,32.70
2023-02-22T22:15:05.373Z,33.10
2023-02-22T22:17:17.356Z,32.40
2023-02-22T22:19:30.705Z,33.30
2023-02-22T22:21:42.986Z,28.40
2023-02-22T22:23:56.299Z,28.80
2023-02-22T22:26:13.127Z,31.70
2023-02-22T22:28:27.159Z,29.90
2023-02-22T22:30:39.988Z,29.40
2023-02-22T22:32:51.762Z,31.30
2023-02-22T22:35:05.320Z,29.90
2023-02-22T22:37:17.594Z,29.70
2023-02-22T22:39:29.383Z,26.90
2023-02-22T22:41:45.010Z,28.20
2023-02-22T22:43:56.554Z,28.50
2023-02-22T22:46:08.952Z,32.20
2023-02-22T22:48:22.891Z,27.30
2023-02-22T22:50:34.681Z,29.30
2023-02-22T22:52:46.778Z,26.10
2023-02-22T22:55:00.822Z,25.20
2023-02-22T22:57:13.839Z,27.20
2023-02-22T22:59:25.323Z,24.00
2023-02-22T23:01:40.666Z,25.90
2023-02-22T23:04:04.568Z,29.70
2023-02-22T23:06:16.672Z,26.50
2023-02-22T23:08:29.477Z,26.10
2023-02-22T23:10:41.890Z,26.10
2023-02-22T23:12:55.990Z,25.30
2023-02-22T23:15:08.947Z,26.90
2023-02-22T23:17:31.543Z,25.50
2023-02-22T23:19:45.100Z,24.50
2023-02-22T23:21:59.215Z,28.40
2023-02-22T23:24:15.289Z,26.90
2023-02-22T23:26:27.353Z,24.60
2023-02-22T23:28:41.042Z,25.30
2023-02-22T23:30:53.043Z,25.40
2023-02-22T23:33:05.293Z,26.40
2023-02-22T23:35:19.234Z,23.80
2023-02-22T23:37:35.555Z,23.50
2023-02-22T23:39:48.862Z,26.20
2023-02-22T23:42:00.549Z,25.20
2023-02-22T23:44:17.565Z,23.60
2023-02-22T23:46:33.014Z,23.80
2023-02-22T23:48:51.133Z,26.90
2023-02-22T23:51:10.618Z,25.40
2023-02-22T23:53:22.732Z,23.50
2023-02-22T23:55:39.275Z,25.70
2023-02-22T23:57:51.121Z,25.90
